Time;durP1;ratioP1;P1;durP2;ratioP2;P2;SDS_P1;SDS_P2;PMS_P1;PMS_P2;Temp;Humidity;BMP_temperature;BMP_pressure;BME280_temperature;BME280_humidity;BME280_pressure;Samples;Min_cycle;Max_cycle;Signal;HPM_P1;HPM_P2
2021/08/04 00:00:52;;;;;;;9.20;7.10;;;;;;;20.56;88.05;100691.53;1661248;86;21300;-67
2021/08/04 00:03:25;;;;;;;12.65;7.03;;;;;;;20.52;88.08;100695.06;1670148;86;21300;-67
2021/08/04 00:05:59;;;;;;;11.78;7.67;;;;;;;20.51;88.18;100699.25;1674069;86;21292;-67
2021/08/04 00:08:32;;;;;;;11.28;8.10;;;;;;;20.48;87.98;100704.44;1672944;85;21292;-67
2021/08/04 00:11:05;;;;;;;15.75;8.88;;;;;;;20.44;87.88;100707.17;1659175;86;21328;-66
2021/08/04 00:13:39;;;;;;;14.35;8.38;;;;;;;20.44;88.27;100707.17;1672702;85;21165;-68
2021/08/04 00:16:13;;;;;;;14.60;9.45;;;;;;;20.46;88.51;100712.28;1670342;85;21205;-65
2021/08/04 00:18:46;;;;;;;13.58;9.83;;;;;;;20.47;88.67;100703.28;1669826;86;21323;-65
2021/08/04 00:21:19;;;;;;;14.60;8.88;;;;;;;20.46;88.75;100709.62;1662445;86;21320;-67
2021/08/04 00:23:53;;;;;;;14.18;8.75;;;;;;;20.48;88.73;100715.58;1672172;86;21225;-66
2021/08/04 00:26:25;;;;;;;13.78;8.98;;;;;;;20.48;88.74;100717.73;1668900;85;21363;-66
2021/08/04 00:28:59;;;;;;;12.82;9.28;;;;;;;20.48;88.76;100727.55;1670976;86;21796;-65
2021/08/04 00:31:32;;;;;;;16.27;10.28;;;;;;;20.49;88.63;100727.88;1673236;85;21336;-65
2021/08/04 00:34:05;;;;;;;15.50;9.88;;;;;;;20.46;88.37;100729.08;1673796;84;21296;-66
2021/08/04 00:36:38;;;;;;;12.78;9.63;;;;;;;20.44;88.19;100735.09;1673094;86;21288;-66
2021/08/04 00:39:11;;;;;;;18.77;9.33;;;;;;;20.41;88.05;100731.47;1674734;86;21285;-65
2021/08/04 00:41:45;;;;;;;14.80;9.68;;;;;;;20.35;88.00;100738.85;1674413;86;21300;-65
2021/08/04 00:44:18;;;;;;;17.05;9.08;;;;;;;20.32;88.12;100741.08;1665853;85;21296;-65
2021/08/04 00:46:52;;;;;;;13.78;8.75;;;;;;;20.28;88.30;100742.44;1664943;85;21209;-65
2021/08/04 00:49:25;;;;;;;11.38;8.83;;;;;;;20.26;88.56;100738.65;1657293;86;21820;-66
2021/08/04 00:51:59;;;;;;;17.55;9.15;;;;;;;20.23;88.42;100746.99;1668672;86;21725;-68
2021/08/04 00:54:33;;;;;;;11.33;8.75;;;;;;;20.18;88.69;100754.17;1663252;86;21162;-69
2021/08/04 00:57:07;;;;;;;13.93;9.15;;;;;;;20.17;88.93;100753.03;1666595;85;21335;-66
2021/08/04 00:59:42;;;;;;;11.35;8.88;;;;;;;20.16;89.03;100753.53;1663420;86;21173;-68
2021/08/04 01:02:38;;;;;;;14.58;8.40;;;;;;;20.14;89.07;100744.92;1673704;86;21289;-66
2021/08/04 01:05:15;;;;;;;12.05;8.18;;;;;;;20.13;89.06;100745.92;1666434;84;21798;-66
2021/08/04 01:08:08;;;;;;;11.93;7.67;;;;;;;20.11;89.17;100744.46;1663594;85;21284;-66
2021/08/04 01:10:44;;;;;;;14.43;7.90;;;;;;;20.08;89.32;100741.66;1669765;84;21834;-65
2021/08/04 01:13:32;;;;;;;8.28;7.08;;;;;;;20.06;89.34;100749.00;1673821;86;21197;-66
2021/08/04 01:16:12;;;;;;;10.90;7.30;;;;;;;20.02;89.51;100742.42;1673780;86;21197;-66
2021/08/04 01:19:26;;;;;;;10.10;7.53;;;;;;;20.00;89.57;100741.78;1665484;86;21327;-66
2021/08/04 01:22:22;;;;;;;14.25;7.85;;;;;;;19.99;89.59;100749.42;1657196;85;21332;-68
2021/08/04 01:25:12;;;;;;;;;;;;;;;19.96;89.59;100745.84;1673107;86;21233;-66
2021/08/04 01:27:52;;;;;;;10.23;7.53;;;;;;;19.95;89.56;100753.47;1674167;86;20297;-66
2021/08/04 01:30:26;;;;;;;12.73;7.83;;;;;;;19.93;89.47;100752.01;1664693;85;21355;-68
2021/08/04 01:32:59;;;;;;;11.50;7.28;;;;;;;19.90;89.21;100753.20;1672365;85;21420;-67
2021/08/04 01:35:32;;;;;;;10.05;7.55;;;;;;;19.87;89.04;100755.41;1646273;85;21308;-68
2021/08/04 01:38:05;;;;;;;12.23;7.67;;;;;;;19.82;89.16;100748.50;1645728;87;21289;-68
2021/08/04 01:40:38;;;;;;;12.13;7.58;;;;;;;19.78;89.26;100754.66;1645281;86;21308;-68
2021/08/04 01:43:12;;;;;;;12.98;7.37;;;;;;;19.72;89.18;100756.73;1646725;87;21328;-68
2021/08/04 01:45:44;;;;;;;;;;;;;;;19.71;89.39;100767.53;1647425;87;21258;-67
2021/08/04 01:48:17;;;;;;;9.20;7.42;;;;;;;19.67;89.50;100759.61;1647194;87;20561;-68
2021/08/04 01:50:54;;;;;;;8.93;7.45;;;;;;;19.64;89.77;100761.30;1647048;86;21238;-68
2021/08/04 01:53:27;;;;;;;10.65;7.10;;;;;;;19.63;89.79;100763.13;1649486;87;21286;-68
2021/08/04 01:56:00;;;;;;;9.30;7.47;;;;;;;19.62;89.84;100762.82;1645404;86;21202;-68
2021/08/04 01:58:33;;;;;;;10.75;7.25;;;;;;;19.61;89.79;100761.69;1645192;87;21187;-68
2021/08/04 02:01:07;;;;;;;11.78;7.97;;;;;;;19.59;89.88;100759.19;1646650;87;21353;-67
2021/08/04 02:03:40;;;;;;;10.93;7.60;;;;;;;19.58;90.12;100758.89;1616903;88;21316;-67
2021/08/04 02:06:24;;;;;;;10.00;7.70;;;;;;;19.60;90.12;100759.52;1616687;89;21307;-68
2021/08/04 02:09:10;;;;;;;12.33;7.15;;;;;;;19.61;89.96;100759.83;1617337;89;21177;-68
2021/08/04 02:12:08;;;;;;;10.25;7.92;;;;;;;19.63;89.93;100768.97;1576792;89;21298;-68
2021/08/04 02:15:05;;;;;;;9.45;7.33;;;;;;;19.62;89.91;100769.95;1609748;89;21709;-68
2021/08/04 02:17:48;;;;;;;13.20;7.87;;;;;;;19.63;89.96;100766.30;1628635;87;21188;-68
2021/08/04 02:20:35;;;;;;;11.85;7.83;;;;;;;19.64;90.04;100774.08;1669688;85;21327;-66
2021/08/04 02:23:10;;;;;;;10.35;7.83;;;;;;;19.67;90.10;100776.88;1627009;88;21247;-66
2021/08/04 02:25:50;;;;;;;17.77;11.88;;;;;;;19.66;89.95;100773.39;1625040;87;21374;-67
2021/08/04 02:28:36;;;;;;;18.00;12.13;;;;;;;19.67;89.85;100773.72;1616890;89;21316;-67
2021/08/04 02:31:10;;;;;;;11.55;9.78;;;;;;;19.68;89.64;100775.89;1617259;89;21213;-67
2021/08/04 02:33:44;;;;;;;9.50;7.25;;;;;;;19.69;89.58;100781.00;1605496;86;21249;-67
2021/08/04 02:36:19;;;;;;;12.10;7.85;;;;;;;19.70;89.60;100785.82;1649638;87;21316;-67
2021/08/04 02:38:52;;;;;;;14.25;8.38;;;;;;;19.73;89.42;100786.77;1625234;87;22022;-66
2021/08/04 02:41:25;;;;;;;11.10;7.90;;;;;;;19.77;89.25;100792.05;1648020;86;21280;-66
2021/08/04 02:43:58;;;;;;;10.38;8.63;;;;;;;19.80;89.04;100787.18;1656596;86;21220;-66
2021/08/04 02:46:32;;;;;;;14.43;8.65;;;;;;;19.84;88.99;100788.98;1660520;86;21300;-66
2021/08/04 02:49:05;;;;;;;8.53;7.05;;;;;;;19.87;88.76;100792.08;1661123;86;21220;-68
2021/08/04 02:51:41;;;;;;;11.83;6.78;;;;;;;19.92;88.69;100793.69;1660836;86;21189;-66
2021/08/04 02:54:15;;;;;;;11.15;6.35;;;;;;;19.97;88.43;100801.95;1681022;85;21173;-66
2021/08/04 02:56:48;;;;;;;9.60;5.72;;;;;;;20.03;88.21;100803.05;1673134;85;21340;-67
2021/08/04 02:59:22;;;;;;;8.03;5.08;;;;;;;20.08;87.86;100803.33;1672644;85;21272;-67
2021/08/04 03:01:55;;;;;;;6.83;5.22;;;;;;;20.11;87.48;100802.44;1672147;84;21218;-67
2021/08/04 03:04:29;;;;;;;8.73;4.95;;;;;;;20.19;87.21;100806.84;1683145;84;21185;-67
2021/08/04 03:07:04;;;;;;;13.10;4.85;;;;;;;20.28;86.99;100802.27;1684193;85;21331;-67
2021/08/04 03:09:36;;;;;;;;;;;;;;;20.35;86.67;100809.85;1685638;85;21292;-68
2021/08/04 03:12:09;;;;;;;7.72;4.67;;;;;;;20.45;86.26;100807.70;1682631;85;20870;-68
2021/08/04 03:14:42;;;;;;;;;;;;;;;20.53;85.58;100805.77;1682428;85;21335;-67
2021/08/04 03:17:15;;;;;;;8.63;4.85;;;;;;;20.63;85.07;100809.47;1683578;85;20250;-69
2021/08/04 03:19:49;;;;;;;8.43;5.95;;;;;;;20.72;84.38;100809.66;1682910;85;21699;-68
2021/08/04 03:22:22;;;;;;;10.30;6.65;;;;;;;20.81;83.49;100816.02;1683953;85;21323;-68
2021/08/04 03:24:55;;;;;;;8.80;6.33;;;;;;;20.88;82.54;100820.56;1684056;85;21360;-67
2021/08/04 03:27:29;;;;;;;9.75;6.17;;;;;;;20.95;82.08;100824.11;1683631;85;21279;-69
2021/08/04 03:30:02;;;;;;;8.08;5.92;;;;;;;20.98;81.33;100828.57;1686298;85;21321;-68
2021/08/04 03:32:36;;;;;;;8.35;5.42;;;;;;;21.05;81.07;100828.16;1683578;85;21340;-68
2021/08/04 03:35:11;;;;;;;7.58;4.90;;;;;;;21.15;80.76;100835.33;1684128;85;21286;-67
2021/08/04 03:37:45;;;;;;;9.15;4.83;;;;;;;21.27;80.50;100829.81;1683141;85;21319;-68
2021/08/04 03:40:18;;;;;;;5.42;4.67;;;;;;;21.41;79.95;100834.73;1683876;85;21311;-69
2021/08/04 03:42:51;;;;;;;9.55;4.90;;;;;;;21.54;79.40;100838.86;1683648;85;21153;-71
2021/08/04 03:45:26;;;;;;;6.33;5.03;;;;;;;21.69;78.93;100836.07;1683837;85;21282;-69
2021/08/04 03:47:59;;;;;;;11.10;5.00;;;;;;;21.88;78.33;100838.08;1684223;85;21291;-72
2021/08/04 03:50:32;;;;;;;9.43;4.20;;;;;;;22.14;77.66;100839.07;1684644;85;21188;-70
2021/08/04 03:53:05;;;;;;;5.37;3.95;;;;;;;22.54;76.50;100840.61;1685976;85;21239;-70
2021/08/04 03:55:38;;;;;;;7.10;4.43;;;;;;;23.01;75.18;100837.90;1684496;85;21692;-71
2021/08/04 03:58:13;;;;;;;8.38;4.45;;;;;;;23.54;73.56;100838.80;1683899;85;21882;-71
2021/08/04 04:00:46;;;;;;;8.25;4.28;;;;;;;24.20;71.75;100844.06;1684066;85;21383;-68
2021/08/04 04:03:19;;;;;;;6.65;4.28;;;;;;;24.97;69.32;100838.60;1683784;85;21351;-69
2021/08/04 04:05:52;;;;;;;7.53;4.55;;;;;;;25.72;66.43;100836.30;1684272;85;21208;-71
2021/08/04 04:08:25;;;;;;;5.42;3.98;;;;;;;26.36;63.60;100847.94;1683785;85;21882;-72
2021/08/04 04:10:59;;;;;;;7.22;3.87;;;;;;;26.82;60.78;100846.83;1683411;85;21192;-72
2021/08/04 04:13:32;;;;;;;8.18;4.28;;;;;;;27.29;59.10;100848.63;1683888;85;21321;-75
2021/08/04 04:16:06;;;;;;;5.83;3.75;;;;;;;27.86;56.98;100851.63;1684866;85;21275;-73
2021/08/04 04:18:40;;;;;;;5.95;3.60;;;;;;;28.33;55.50;100853.23;1685045;85;21236;-69
2021/08/04 04:21:13;;;;;;;5.05;3.27;;;;;;;28.87;53.53;100847.88;1684039;85;21188;-72
2021/08/04 04:23:46;;;;;;;;;;;;;;;29.43;51.41;100847.50;1685958;85;21304;-72
2021/08/04 04:26:19;;;;;;;3.30;3.00;;;;;;;29.99;49.67;100845.98;1683523;85;20209;-70
2021/08/04 04:28:52;;;;;;;;;;;;;;;30.57;48.21;100841.34;1686462;85;21228;-70
2021/08/04 04:31:25;;;;;;;5.28;2.60;;;;;;;31.13;46.34;100842.75;1683233;85;20281;-71
2021/08/04 04:33:58;;;;;;;5.70;2.83;;;;;;;31.58;45.03;100840.97;1684359;85;21863;-70
2021/08/04 04:36:30;;;;;;;;;;;;;;;31.87;43.77;100843.08;1686277;85;21197;-69
2021/08/04 04:39:03;;;;;;;6.78;2.65;;;;;;;31.91;42.81;100844.70;1674939;85;20179;-68
2021/08/04 04:41:37;;;;;;;4.70;3.27;;;;;;;31.78;42.78;100841.13;1675033;85;21264;-69
2021/08/04 04:44:10;;;;;;;8.75;2.98;;;;;;;31.61;42.70;100848.05;1675691;85;21240;-67
2021/08/04 04:46:43;;;;;;;8.15;3.00;;;;;;;31.44;42.57;100853.32;1674263;85;21336;-68
2021/08/04 04:49:16;;;;;;;;;;;;;;;31.43;42.33;100857.09;1676615;85;21303;-69
2021/08/04 04:51:48;;;;;;;3.75;3.05;;;;;;;31.83;41.35;100856.88;1672171;85;20301;-70
2021/08/04 04:54:22;;;;;;;6.53;3.50;;;;;;;32.33;40.71;100857.70;1672731;85;21347;-72
2021/08/04 05:01:18;;;;;;;6.45;5.10;;;;;;;33.47;38.13;100859.31;1612959;87;21237;-70
2021/08/04 05:08:01;;;;;;;5.97;4.00;;;;;;;35.13;35.65;100856.06;1647719;86;21966;-74
2021/08/04 05:10:34;;;;;;;7.45;4.75;;;;;;;35.95;34.07;100861.03;1645053;86;21366;-76
2021/08/04 05:17:17;;;;;;;9.20;4.37;;;;;;;37.04;32.35;100864.84;1659175;86;21978;-73
2021/08/04 05:19:51;;;;;;;7.87;4.42;;;;;;;37.69;31.02;100864.31;1649475;86;21391;-74
2021/08/04 05:22:24;;;;;;;8.00;4.85;;;;;;;38.09;30.33;100861.95;1646601;87;21336;-74
2021/08/04 05:29:06;;;;;;;6.97;3.08;;;;;;;38.91;28.95;100859.38;1648549;87;22049;-73
2021/08/04 05:35:50;;;;;;;6.17;3.02;;;;;;;39.64;27.35;100862.27;1645505;87;21828;-73
2021/08/04 05:38:23;;;;;;;5.00;3.20;;;;;;;40.04;26.60;100855.69;1617450;87;21281;-72
2021/08/04 05:40:56;;;;;;;4.00;2.92;;;;;;;40.35;26.05;100865.20;1627284;88;21192;-76
2021/08/04 05:43:31;;;;;;;5.47;3.08;;;;;;;40.56;25.84;100859.93;1625069;86;21327;-75
2021/08/04 05:50:14;;;;;;;4.25;2.80;;;;;;;41.03;25.13;100862.33;1623870;88;21315;-73
2021/08/04 05:52:47;;;;;;;6.25;2.92;;;;;;;41.42;24.71;100864.30;1626836;86;21326;-74
2021/08/04 05:55:21;;;;;;;5.60;2.20;;;;;;;41.69;24.26;100870.56;1629039;88;21838;-73
2021/08/04 05:57:54;;;;;;;5.75;2.70;;;;;;;41.99;23.23;100864.77;1626379;86;21772;-71
2021/08/04 06:00:27;;;;;;;4.15;2.40;;;;;;;42.23;23.34;100871.88;1625149;88;21264;-75
2021/08/04 06:03:01;;;;;;;2.77;1.90;;;;;;;42.50;23.03;100869.80;1623575;88;21239;-73
2021/08/04 06:05:35;;;;;;;4.67;3.17;;;;;;;42.77;22.33;100863.20;1625215;88;21218;-73
2021/08/04 06:08:10;;;;;;;8.45;3.42;;;;;;;43.07;22.04;100866.68;1625136;88;21311;-73
2021/08/04 06:10:43;;;;;;;4.50;3.33;;;;;;;43.29;21.83;100864.95;1615275;88;21325;-72
2021/08/04 06:13:17;;;;;;;6.00;3.70;;;;;;;43.51;21.35;100865.94;1625211;88;21330;-71
2021/08/04 06:15:53;;;;;;;9.60;3.83;;;;;;;43.68;21.04;100867.72;1625119;88;22161;-70
2021/08/04 06:18:26;;;;;;;5.55;3.95;;;;;;;43.83;20.89;100870.38;1626298;86;21239;-68
2021/08/04 06:21:00;;;;;;;9.43;4.17;;;;;;;44.08;20.66;100870.63;1627440;88;21815;-72
2021/08/04 06:23:34;;;;;;;8.05;3.58;;;;;;;44.34;20.10;100878.53;1625330;88;21585;-74
2021/08/04 06:26:07;;;;;;;6.20;3.05;;;;;;;44.54;20.07;100876.23;1625142;88;21331;-72
2021/08/04 06:28:42;;;;;;;4.03;2.58;;;;;;;44.64;19.99;100877.14;1624944;88;21878;-70
2021/08/04 06:31:17;;;;;;;5.40;1.77;;;;;;;44.69;19.51;100881.82;1623957;88;21204;-69
2021/08/04 06:33:51;;;;;;;3.60;2.25;;;;;;;44.91;19.38;100878.33;1625026;88;21398;-69
2021/08/04 06:36:25;;;;;;;3.87;2.05;;;;;;;45.20;18.74;100880.73;1624975;88;21502;-71
2021/08/04 06:38:58;;;;;;;4.20;1.60;;;;;;;45.56;18.21;100885.28;1625228;87;22026;-70
2021/08/04 06:41:31;;;;;;;5.62;2.00;;;;;;;45.75;17.80;100886.22;1626978;88;21248;-73
2021/08/04 06:44:05;;;;;;;3.10;1.77;;;;;;;45.95;17.48;100884.34;1628035;88;22061;-71
2021/08/04 06:46:40;;;;;;;4.58;1.70;;;;;;;46.10;17.26;100884.91;1625225;88;21346;-71
2021/08/04 06:49:14;;;;;;;3.12;1.80;;;;;;;46.18;16.91;100881.73;1615506;88;22022;-70
2021/08/04 06:51:49;;;;;;;3.10;2.08;;;;;;;46.31;17.02;100883.24;1617633;88;21253;-70
2021/08/04 06:54:23;;;;;;;2.77;1.77;;;;;;;46.39;17.06;100885.83;1618640;88;21384;-72
2021/08/04 06:56:56;;;;;;;1.75;1.60;;;;;;;46.59;16.50;100884.70;1635783;87;21344;-68
2021/08/04 06:59:30;;;;;;;2.20;1.60;;;;;;;46.64;16.19;100888.58;1636926;87;21492;-73
2021/08/04 07:02:03;;;;;;;3.35;1.67;;;;;;;46.69;15.99;100882.75;1636164;87;21598;-72
2021/08/04 07:04:36;;;;;;;3.90;1.40;;;;;;;46.84;15.92;100881.08;1636926;87;22164;-69
2021/08/04 07:07:10;;;;;;;5.53;1.57;;;;;;;47.13;15.48;100876.35;1636520;87;21238;-73
2021/08/04 07:09:43;;;;;;;2.58;2.22;;;;;;;47.47;14.92;100876.60;1638373;87;21544;-71
2021/08/04 07:12:17;;;;;;;4.35;2.37;;;;;;;47.78;14.63;100877.19;1635848;87;21400;-73
2021/08/04 07:14:51;;;;;;;1.70;1.50;;;;;;;47.96;14.49;100880.25;1636718;87;22039;-74
2021/08/04 07:17:24;;;;;;;1.77;1.67;;;;;;;48.11;14.33;100877.08;1635807;87;21613;-73
2021/08/04 07:19:58;;;;;;;2.50;1.75;;;;;;;48.33;14.06;100879.84;1636752;87;21324;-72
2021/08/04 07:22:30;;;;;;;7.85;1.82;;;;;;;48.58;14.17;100883.77;1635714;87;22158;-71
2021/08/04 07:25:04;;;;;;;4.22;1.72;;;;;;;48.87;14.02;100882.17;1636463;87;21400;-71
2021/08/04 07:27:37;;;;;;;3.90;1.60;;;;;;;49.22;13.29;100879.03;1635587;87;21367;-70
2021/08/04 07:30:11;;;;;;;6.80;2.62;;;;;;;49.59;12.88;100875.62;1637100;87;21344;-71
2021/08/04 07:32:45;;;;;;;3.83;2.05;;;;;;;50.00;12.59;100879.16;1638253;87;21400;-71
2021/08/04 07:35:19;;;;;;;2.52;1.77;;;;;;;50.24;12.49;100882.73;1637035;87;21316;-74
2021/08/04 07:37:53;;;;;;;5.42;1.90;;;;;;;50.36;12.17;100886.58;1633766;87;22050;-71
2021/08/04 07:40:27;;;;;;;2.00;1.90;;;;;;;50.25;12.19;100880.75;1636839;87;21320;-75
2021/08/04 07:43:02;;;;;;;3.87;2.25;;;;;;;50.20;12.14;100876.31;1636177;86;21324;-71
2021/08/04 07:45:35;;;;;;;3.72;2.50;;;;;;;50.01;12.43;100873.80;1636673;87;21254;-70
2021/08/04 07:48:08;;;;;;;2.17;1.98;;;;;;;49.87;12.62;100875.88;1635409;86;21289;-70
2021/08/04 07:50:41;;;;;;;3.47;2.10;;;;;;;49.26;13.00;100873.71;1634660;87;21481;-70
2021/08/04 07:53:15;;;;;;;4.28;1.75;;;;;;;48.27;13.59;100874.41;1635373;87;21222;-68
2021/08/04 07:55:49;;;;;;;2.77;1.50;;;;;;;47.25;14.00;100880.34;1636215;87;21430;-69
2021/08/04 07:58:23;;;;;;;1.52;1.37;;;;;;;46.14;14.64;100880.28;1635205;87;22131;-72
2021/08/04 08:00:56;;;;;;;1.50;1.40;;;;;;;45.74;15.27;100880.45;1634911;87;21324;-72
2021/08/04 08:03:30;;;;;;;2.27;1.47;;;;;;;45.75;15.42;100885.41;1635676;86;21209;-68
2021/08/04 08:06:04;;;;;;;4.65;1.77;;;;;;;45.97;15.30;100886.20;1634941;87;22217;-68
2021/08/04 08:08:37;;;;;;;2.65;1.70;;;;;;;46.27;15.09;100885.11;1633422;86;21256;-73
2021/08/04 08:11:11;;;;;;;2.55;1.30;;;;;;;46.53;14.80;100877.02;1636682;87;21607;-68
2021/08/04 08:13:47;;;;;;;1.32;1.20;;;;;;;46.69;14.39;100870.28;1633625;86;21515;-70
2021/08/04 08:16:20;;;;;;;2.95;1.40;;;;;;;46.65;14.35;100872.16;1634782;87;22151;-70
2021/08/04 08:18:53;;;;;;;1.92;1.52;;;;;;;46.58;14.59;100876.73;1633232;87;21249;-71
2021/08/04 08:21:26;;;;;;;2.12;1.20;;;;;;;46.75;14.68;100872.19;1638314;87;21317;-71
2021/08/04 08:24:00;;;;;;;4.78;1.45;;;;;;;46.77;14.64;100876.78;1633313;87;21359;-69
2021/08/04 08:26:36;;;;;;;4.40;1.45;;;;;;;46.87;14.40;100872.05;1633440;87;21625;-69
2021/08/04 08:29:10;;;;;;;1.98;1.67;;;;;;;46.82;14.33;100874.30;1633367;87;21345;-70
2021/08/04 08:31:44;;;;;;;4.08;1.20;;;;;;;46.66;13.98;100872.39;1634681;87;21320;-71
2021/08/04 08:34:17;;;;;;;4.20;1.67;;;;;;;46.53;14.15;100875.06;1633456;86;21610;-70
2021/08/04 08:41:01;;;;;;;3.80;1.00;;;;;;;46.56;14.44;100873.53;1637131;87;21157;-74
2021/08/04 08:43:35;;;;;;;3.02;1.65;;;;;;;46.44;14.22;100873.66;1637003;87;21356;-72
2021/08/04 08:46:09;;;;;;;1.67;0.90;;;;;;;46.39;14.17;100867.83;1637869;87;22150;-69
2021/08/04 08:48:48;;;;;;;2.55;1.15;;;;;;;46.38;14.11;100869.01;1633691;87;21269;-74
2021/08/04 08:51:22;;;;;;;2.35;1.00;;;;;;;46.19;14.37;100863.41;1634597;87;21251;-71
2021/08/04 08:53:55;;;;;;;2.45;0.90;;;;;;;46.01;14.47;100864.36;1635988;87;21588;-71
2021/08/04 08:56:28;;;;;;;2.50;0.90;;;;;;;45.83;14.54;100870.60;1636691;87;21324;-73
2021/08/04 08:59:02;;;;;;;1.15;0.80;;;;;;;45.61;14.30;100875.38;1635818;87;21253;-69
2021/08/04 09:01:39;;;;;;;1.87;1.00;;;;;;;45.27;14.17;100869.91;1634584;87;21269;-72
2021/08/04 09:04:16;;;;;;;3.02;0.88;;;;;;;44.92;14.28;100867.52;1635700;87;21500;-70
2021/08/04 09:06:52;;;;;;;2.50;0.88;;;;;;;44.63;14.66;100868.61;1637544;87;21324;-69
2021/08/04 09:13:09;;;;;;;8.45;1.25;;;;;;;43.82;15.03;100868.75;1634338;86;21198;-70
2021/08/04 09:15:44;;;;;;;2.70;1.00;;;;;;;42.71;16.22;100869.23;1635350;87;21206;-70
2021/08/04 09:22:28;;;;;;;1.62;0.85;;;;;;;41.93;17.20;100876.30;1634717;87;21432;-72
2021/08/04 09:25:07;;;;;;;1.47;0.80;;;;;;;41.84;17.41;100875.53;1635211;87;21233;-72
2021/08/04 09:27:52;;;;;;;1.00;0.90;;;;;;;41.84;17.77;100866.72;1634436;87;21328;-71
2021/08/04 09:30:32;;;;;;;1.12;0.80;;;;;;;41.75;17.89;100874.77;1637311;87;21325;-72
2021/08/04 09:33:14;;;;;;;1.62;0.98;;;;;;;41.49;18.00;100876.16;1638824;87;21316;-71
2021/08/04 09:35:53;;;;;;;4.03;1.02;;;;;;;41.18;18.30;100871.45;1635465;87;21580;-71
2021/08/04 09:38:26;;;;;;;2.12;1.00;;;;;;;41.01;18.38;100865.97;1636543;87;21408;-73
2021/08/04 09:45:09;;;;;;;1.85;0.93;;;;;;;40.65;18.61;100862.14;1636183;87;22018;-74
2021/08/04 09:48:04;;;;;;;2.55;0.88;;;;;;;40.12;18.86;100862.33;1637293;87;21332;-75
2021/08/04 09:50:56;;;;;;;4.10;1.20;;;;;;;39.80;19.60;100862.09;1637435;87;21261;-71
2021/08/04 09:53:38;;;;;;;4.90;1.40;;;;;;;39.38;20.15;100861.28;1672021;84;21316;-75
2021/08/04 10:00:21;;;;;;;2.17;0.95;;;;;;;38.49;20.97;100857.59;1669427;84;21204;-73
2021/08/04 10:02:55;;;;;;;1.90;0.90;;;;;;;37.84;21.50;100856.42;1671061;86;22094;-72
2021/08/04 10:09:38;;;;;;;1.80;1.00;;;;;;;37.39;22.00;100855.30;1671842;85;21483;-73
2021/08/04 10:16:22;;;;;;;10.08;1.67;;;;;;;36.64;23.04;100857.80;1672751;86;21677;-75
2021/08/04 10:18:55;;;;;;;5.10;1.15;;;;;;;36.03;24.61;100853.63;1642954;86;21226;-71
2021/08/04 10:21:27;;;;;;;;;;;;;;;35.91;24.13;100847.73;1647236;87;21368;-71
2021/08/04 10:24:01;;;;;;;5.75;1.10;;;;;;;35.78;24.26;100844.59;1628277;88;20215;-77
2021/08/04 10:26:36;;;;;;;2.45;0.82;;;;;;;35.47;24.63;100849.25;1671610;86;21347;-75
2021/08/04 10:29:10;;;;;;;4.05;1.10;;;;;;;35.17;24.92;100844.86;1672159;84;21221;-76
2021/08/04 10:31:46;;;;;;;4.10;1.12;;;;;;;34.77;25.79;100846.48;1672502;86;21221;-71
2021/08/04 10:34:28;;;;;;;1.55;0.93;;;;;;;34.49;26.63;100840.62;1669067;85;21284;-70
2021/08/04 10:37:02;;;;;;;3.20;0.70;;;;;;;34.40;26.60;100844.20;1669089;85;21217;-71
2021/08/04 10:39:36;;;;;;;2.42;1.15;;;;;;;34.35;26.38;100842.31;1672160;84;21351;-72
2021/08/04 10:42:09;;;;;;;3.42;1.00;;;;;;;34.34;26.76;100839.89;1672784;86;21360;-72
2021/08/04 10:44:44;;;;;;;3.08;0.85;;;;;;;34.28;26.55;100839.63;1674578;85;21331;-71
2021/08/04 10:47:27;;;;;;;2.98;0.98;;;;;;;34.28;26.64;100839.09;1682606;85;21572;-70
2021/08/04 10:50:10;;;;;;;5.15;0.88;;;;;;;34.25;26.13;100841.56;1680158;85;21522;-70
2021/08/04 10:53:05;;;;;;;5.30;1.02;;;;;;;34.14;26.47;100836.70;1680585;85;21335;-70
2021/08/04 10:55:55;;;;;;;4.53;1.20;;;;;;;34.10;26.92;100837.00;1679804;85;21641;-69
2021/08/04 10:58:29;;;;;;;5.75;0.98;;;;;;;34.08;27.06;100839.72;1680480;85;22127;-71
2021/08/04 11:01:25;;;;;;;3.77;1.20;;;;;;;34.03;26.66;100839.70;1679561;85;21334;-72
2021/08/04 11:04:00;;;;;;;2.72;1.20;;;;;;;33.99;27.07;100839.43;1621919;87;21360;-71
2021/08/04 11:06:57;;;;;;;3.37;0.95;;;;;;;34.00;27.05;100838.89;1667278;85;21614;-71
2021/08/04 11:09:38;;;;;;;1.20;0.95;;;;;;;34.09;26.95;100832.64;1685227;85;21355;-71
2021/08/04 11:12:13;;;;;;;4.28;0.80;;;;;;;34.18;26.76;100833.69;1683553;85;21567;-71
2021/08/04 11:14:59;;;;;;;3.05;0.70;;;;;;;34.24;26.38;100832.59;1680462;85;21212;-72
2021/08/04 11:17:34;;;;;;;0.82;0.70;;;;;;;34.18;25.68;100834.26;1680527;85;21319;-70
2021/08/04 11:20:10;;;;;;;5.50;0.80;;;;;;;34.08;25.51;100838.36;1680131;85;21236;-71
2021/08/04 11:22:48;;;;;;;1.60;0.70;;;;;;;33.98;25.44;100834.28;1682492;85;21276;-71
2021/08/04 11:25:41;;;;;;;3.45;1.00;;;;;;;33.89;26.03;100827.26;1681676;85;21366;-73
2021/08/04 11:28:19;;;;;;;1.10;0.88;;;;;;;33.83;25.86;100835.95;1680584;85;21494;-71
2021/08/04 11:30:55;;;;;;;2.95;0.85;;;;;;;33.73;25.74;100837.87;1681880;85;22276;-72
2021/08/04 11:37:41;;;;;;;2.45;0.78;;;;;;;33.63;26.14;100830.55;1680633;85;21141;-70
2021/08/04 11:40:15;;;;;;;1.77;0.80;;;;;;;33.54;26.16;100828.12;1680090;85;21649;-71
2021/08/04 11:42:53;;;;;;;1.22;0.80;;;;;;;33.57;26.04;100825.41;1680476;85;21331;-73
2021/08/04 11:45:28;;;;;;;2.58;1.10;;;;;;;33.56;25.85;100832.73;1678448;85;21399;-73
2021/08/04 11:48:01;;;;;;;1.20;0.80;;;;;;;33.48;25.54;100830.56;1651285;87;22021;-74
2021/08/04 11:54:52;;;;;;;4.03;1.27;;;;;;;33.28;26.58;100845.48;1653398;87;21153;-71
2021/08/04 11:57:39;;;;;;;3.52;0.70;;;;;;;33.02;26.99;100846.55;1634656;87;21364;-73
2021/08/04 12:00:32;;;;;;;2.20;0.93;;;;;;;32.69;27.50;100849.19;1619499;88;21356;-73
2021/08/04 12:03:06;;;;;;;2.02;0.70;;;;;;;32.37;28.04;100847.13;1618489;88;22110;-73
2021/08/04 12:05:35;;;;;;;1.25;1.00;;;;;;;32.09;28.43;100844.31;1595797;88;21377;-71
2021/08/04 12:08:09;;;;;;;6.00;1.20;;;;;;;31.89;28.85;100840.92;1615728;88;21261;-72
2021/08/04 12:10:45;;;;;;;2.52;1.05;;;;;;;31.73;28.94;100843.27;1596381;88;21387;-71
2021/08/04 12:13:18;;;;;;;8.73;4.95;;;;;;;31.57;29.18;100843.42;1594879;87;22256;-75
2021/08/04 12:16:00;;;;;;;9.45;4.92;;;;;;;31.38;29.36;100844.33;1613826;86;21233;-72
2021/08/04 12:18:34;;;;;;;2.92;1.42;;;;;;;31.23;29.14;100843.67;1634528;87;21344;-74
2021/08/04 12:21:07;;;;;;;1.55;1.20;;;;;;;31.14;29.18;100841.69;1637670;86;21234;-71
2021/08/04 12:23:40;;;;;;;;;;;;;;;31.03;29.22;100848.88;1640236;87;21194;-76
2021/08/04 12:26:13;;;;;;;4.30;1.22;;;;;;;30.97;29.56;100840.45;1633982;87;20420;-75
2021/08/04 12:28:46;;;;;;;1.85;0.75;;;;;;;30.97;29.81;100839.09;1639597;87;21293;-72
2021/08/04 12:31:19;;;;;;;1.00;0.90;;;;;;;30.98;29.63;100842.59;1636273;87;21548;-72
2021/08/04 12:34:07;;;;;;;1.95;0.95;;;;;;;30.92;29.88;100841.75;1636709;87;21273;-70
2021/08/04 12:36:54;;;;;;;1.92;0.90;;;;;;;30.91;30.06;100844.69;1636751;87;21336;-69
2021/08/04 12:39:18;;;;;;;1.17;0.93;;;;;;;30.90;29.69;100852.54;1633415;87;21357;-72
2021/08/04 12:41:51;;;;;;;5.62;2.50;;;;;;;30.87;29.97;100850.30;1635980;87;21487;-71
2021/08/04 12:44:25;;;;;;;2.50;1.05;;;;;;;30.84;30.23;100851.63;1637258;87;21376;-69
2021/08/04 12:46:59;;;;;;;2.62;0.90;;;;;;;30.82;29.59;100849.72;1637490;87;21283;-74
2021/08/04 12:49:34;;;;;;;13.50;1.72;;;;;;;30.73;29.32;100852.61;1671787;86;21323;-72
2021/08/04 12:52:08;;;;;;;1.82;0.80;;;;;;;30.60;29.70;100855.16;1669961;84;21604;-73
2021/08/04 12:54:41;;;;;;;5.08;1.15;;;;;;;30.45;30.09;100856.88;1670629;86;21213;-72
2021/08/04 12:57:25;;;;;;;1.98;1.07;;;;;;;30.34;30.56;100855.92;1672376;84;21388;-69
2021/08/04 13:00:02;;;;;;;2.87;1.12;;;;;;;30.33;30.58;100856.98;1672777;86;21681;-71
2021/08/04 13:02:40;;;;;;;1.40;0.80;;;;;;;30.35;30.30;100857.57;1671461;84;21232;-68
2021/08/04 13:05:13;;;;;;;1.47;0.90;;;;;;;30.35;30.03;100845.41;1670421;86;21339;-67
2021/08/04 13:07:47;;;;;;;3.02;1.00;;;;;;;30.33;30.04;100853.45;1670041;84;21622;-68